createdAt,value
2018-01-14T00:01:50.306Z,101549.88
2018-01-14T00:04:17.910Z,101544.49
2018-01-14T00:06:45.570Z,101548.54
2018-01-14T00:09:13.313Z,101543.95
2018-01-14T00:11:40.934Z,101540.57
2018-01-14T00:14:08.758Z,101536.69
2018-01-14T00:16:36.382Z,101535.30
2018-01-14T00:19:04.094Z,101531.38
2018-01-14T00:21:31.737Z,101532.32
2018-01-14T00:23:59.332Z,101536.68
2018-01-14T00:26:27.114Z,101529.94
2018-01-14T00:28:54.733Z,101530.16
2018-01-14T00:31:22.462Z,101533.78
2018-01-14T00:33:50.045Z,101533.45
2018-01-14T00:36:17.696Z,101537.86
2018-01-14T00:38:45.310Z,101533.48
2018-01-14T00:41:12.919Z,101527.57
2018-01-14T00:43:40.558Z,101522.64
2018-01-14T00:46:08.186Z,101519.28
2018-01-14T00:48:35.806Z,101518.77
2018-01-14T00:51:03.390Z,101517.86
2018-01-14T00:53:31.072Z,101519.09
2018-01-14T00:55:58.767Z,101511.23
2018-01-14T00:58:26.402Z,101502.36
2018-01-14T01:00:53.994Z,101503.90
2018-01-14T01:03:21.624Z,101509.17
2018-01-14T01:05:49.243Z,101505.19
2018-01-14T01:08:16.857Z,101504.59
2018-01-14T01:10:44.442Z,101513.20
2018-01-14T01:13:12.079Z,101512.67
2018-01-14T01:15:39.658Z,101513.78
2018-01-14T01:18:07.262Z,101521.56
2018-01-14T01:20:34.929Z,101516.14
2018-01-14T01:23:02.530Z,101519.34
2018-01-14T01:25:30.168Z,101515.55
2018-01-14T01:27:57.763Z,101514.44
2018-01-14T01:30:25.402Z,101525.56
2018-01-14T01:32:53.045Z,101513.44
2018-01-14T01:35:20.682Z,101512.40
2018-01-14T01:37:48.288Z,101509.36
2018-01-14T01:40:15.931Z,101509.36
2018-01-14T01:42:43.526Z,101513.14
2018-01-14T01:45:11.153Z,101517.13
2018-01-14T01:47:38.749Z,101509.69
2018-01-14T01:50:06.381Z,101507.02
2018-01-14T01:52:33.953Z,101498.86
2018-01-14T01:55:01.601Z,101502.42
2018-01-14T01:57:29.193Z,101507.31
2018-01-14T01:59:56.785Z,101488.52
2018-01-14T02:02:24.414Z,101494.98
2018-01-14T02:04:52.025Z,101502.02
2018-01-14T02:07:19.641Z,101497.22
2018-01-14T02:09:47.229Z,101495.27
2018-01-14T02:12:14.862Z,101494.15
2018-01-14T02:14:42.550Z,101488.73
2018-01-14T02:17:10.161Z,101484.64
2018-01-14T02:19:37.743Z,101482.62
2018-01-14T02:22:05.403Z,101485.59
2018-01-14T02:24:33.011Z,101487.34
2018-01-14T02:27:00.610Z,101491.70
2018-01-14T02:29:28.352Z,101486.19
2018-01-14T02:31:55.949Z,101486.50
2018-01-14T02:34:23.566Z,101493.88
2018-01-14T02:36:51.163Z,101492.24
2018-01-14T02:39:18.785Z,101492.31
2018-01-14T02:41:46.418Z,101494.45
2018-01-14T02:44:14.054Z,101488.75
2018-01-14T02:46:41.650Z,101484.45
2018-01-14T02:49:09.275Z,101489.66
2018-01-14T02:51:36.876Z,101489.98
2018-01-14T02:54:04.505Z,101491.10
2018-01-14T02:56:33.046Z,101482.02
2018-01-14T02:59:00.670Z,101492.64
2018-01-14T03:01:28.263Z,101492.33
2018-01-14T03:03:55.914Z,101499.07
2018-01-14T03:06:23.498Z,101491.63
2018-01-14T03:08:51.222Z,101490.30
2018-01-14T03:11:18.857Z,101482.83
2018-01-14T03:13:46.418Z,101494.46
2018-01-14T03:16:14.048Z,101495.08
2018-01-14T03:18:41.637Z,101497.84
2018-01-14T03:21:09.277Z,101491.63
2018-01-14T03:23:36.926Z,101498.06
2018-01-14T03:26:04.553Z,101491.42
2018-01-14T03:28:32.133Z,101499.80
2018-01-14T03:30:59.807Z,101493.06
2018-01-14T03:33:27.418Z,101487.34
2018-01-14T03:35:55.094Z,101493.06
2018-01-14T03:38:22.683Z,101488.56
2018-01-14T03:40:50.327Z,101485.28
2018-01-14T03:43:17.920Z,101481.41
2018-01-14T03:45:45.546Z,101476.94
2018-01-14T03:48:13.185Z,101469.98
2018-01-14T03:50:40.768Z,101473.86
2018-01-14T03:53:08.386Z,101473.66
2018-01-14T03:55:35.974Z,101476.83
2018-01-14T03:58:03.606Z,101484.80
2018-01-14T04:00:31.200Z,101478.69
2018-01-14T04:02:58.820Z,101479.59
2018-01-14T04:05:26.413Z,101471.31
2018-01-14T04:07:54.109Z,101477.05
2018-01-14T04:10:21.700Z,101484.48
2018-01-14T04:12:49.501Z,101486.23
2018-01-14T04:15:17.096Z,101482.45
2018-01-14T04:17:44.729Z,101486.33
2018-01-14T04:20:12.326Z,101479.07
2018-01-14T04:22:39.934Z,101476.31
2018-01-14T04:25:07.580Z,101477.25
2018-01-14T04:27:35.170Z,101480.30
2018-01-14T04:30:02.853Z,101472.54
2018-01-14T04:32:30.467Z,101474.81
2018-01-14T04:34:58.073Z,101470.93
2018-01-14T04:37:25.676Z,101474.70
2018-01-14T04:39:53.353Z,101463.67
2018-01-14T04:42:20.953Z,101468.56
2018-01-14T04:44:48.617Z,101468.66
2018-01-14T04:47:16.241Z,101461.75
2018-01-14T04:49:43.870Z,101461.33
2018-01-14T04:52:15.378Z,101458.78
2018-01-14T04:54:43.002Z,101462.55
2018-01-14T04:57:10.611Z,101462.45
2018-01-14T04:59:38.262Z,101463.98
2018-01-14T05:02:05.855Z,101459.28
2018-01-14T05:04:33.497Z,101465.10
2018-01-14T05:07:01.132Z,101458.68
2018-01-14T05:09:28.721Z,101463.08
2018-01-14T05:11:56.409Z,101464.09
2018-01-14T05:14:24.021Z,101462.97
2018-01-14T05:16:51.637Z,101471.11
2018-01-14T05:19:19.239Z,101467.86
2018-01-14T05:21:46.850Z,101476.34
2018-01-14T05:24:14.449Z,101473.58
2018-01-14T05:26:42.072Z,101479.38
2018-01-14T05:29:09.786Z,101469.19
2018-01-14T05:31:37.405Z,101472.75
2018-01-14T05:34:04.950Z,101474.80
2018-01-14T05:36:32.591Z,101474.70
2018-01-14T05:39:00.232Z,101477.56
2018-01-14T05:41:27.861Z,101479.28
2018-01-14T05:43:55.486Z,101485.00
2018-01-14T05:46:23.070Z,101475.61
2018-01-14T05:48:50.688Z,101473.48
2018-01-14T05:51:18.297Z,101472.36
2018-01-14T05:53:45.937Z,101467.16
2018-01-14T05:56:13.593Z,101471.42
2018-01-14T05:58:41.234Z,101466.74
2018-01-14T06:01:08.862Z,101462.87
2018-01-14T06:03:36.446Z,101472.15
2018-01-14T06:06:04.073Z,101465.73
2018-01-14T06:08:31.674Z,101475.81
2018-01-14T06:10:59.261Z,101471.24
2018-01-14T06:13:26.893Z,101473.37
2018-01-14T06:15:54.513Z,101471.73
2018-01-14T06:18:22.149Z,101476.33
2018-01-14T06:20:49.782Z,101475.31
2018-01-14T06:23:17.402Z,101476.02
2018-01-14T06:25:45.080Z,101474.58
2018-01-14T06:28:12.698Z,101470.02
2018-01-14T06:30:40.309Z,101472.94
2018-01-14T06:33:07.946Z,101475.42
2018-01-14T06:35:35.566Z,101476.92
2018-01-14T06:38:03.717Z,101474.68
2018-01-14T06:40:31.306Z,101473.25
2018-01-14T06:42:58.931Z,101480.41
2018-01-14T06:45:26.569Z,101470.80
2018-01-14T06:47:54.178Z,101476.32
2018-01-14T06:50:21.768Z,101468.26
2018-01-14T06:52:49.402Z,101468.67
2018-01-14T06:55:16.990Z,101472.66
2018-01-14T06:57:44.599Z,101468.67
2018-01-14T07:00:12.218Z,101471.11
2018-01-14T07:02:39.820Z,101471.00
2018-01-14T07:05:07.441Z,101471.22
2018-01-14T07:07:35.043Z,101481.09
2018-01-14T07:10:02.774Z,101486.30
2018-01-14T07:12:30.396Z,101482.22
2018-01-14T07:14:58.027Z,101482.73
2018-01-14T07:17:25.621Z,101484.78
2018-01-14T07:19:53.243Z,101482.13
2018-01-14T07:22:20.834Z,101476.30
2018-01-14T07:24:48.478Z,101475.88
2018-01-14T07:27:16.095Z,101476.60
2018-01-14T07:29:43.739Z,101479.94
2018-01-14T07:32:11.326Z,101480.16
2018-01-14T07:34:39.033Z,101479.12
2018-01-14T07:37:06.676Z,101482.48
2018-01-14T07:39:34.301Z,101490.72
2018-01-14T07:42:01.893Z,101480.94
2018-01-14T07:44:29.502Z,101482.16
2018-01-14T07:46:57.126Z,101477.47
2018-01-14T07:49:24.749Z,101485.13
2018-01-14T07:51:52.345Z,101489.21
2018-01-14T07:54:20.010Z,101489.61
2018-01-14T07:56:47.602Z,101494.80
2018-01-14T07:59:15.227Z,101499.09
2018-01-14T08:01:42.808Z,101500.63
2018-01-14T08:04:10.446Z,101509.69
2018-01-14T08:06:38.040Z,101509.89
2018-01-14T08:09:05.658Z,101514.39
2018-01-14T08:11:33.294Z,101512.55
2018-01-14T08:14:00.910Z,101508.70
2018-01-14T08:16:28.501Z,101512.36
2018-01-14T08:18:56.114Z,101516.03
2018-01-14T08:21:23.729Z,101522.26
2018-01-14T08:23:51.351Z,101531.80
2018-01-14T08:26:18.933Z,101529.88
2018-01-14T08:28:46.551Z,101533.64
2018-01-14T08:31:14.150Z,101535.79
2018-01-14T08:33:41.767Z,101532.72
2018-01-14T08:36:09.413Z,101531.73
2018-01-14T08:38:37.026Z,101525.34
2018-01-14T08:41:04.619Z,101532.17
2018-01-14T08:43:32.322Z,101526.30
2018-01-14T08:46:00.010Z,101525.16
2018-01-14T08:48:27.702Z,101526.59
2018-01-14T08:50:55.305Z,101526.17
2018-01-14T08:53:22.931Z,101535.24
2018-01-14T08:55:50.589Z,101531.39
2018-01-14T08:58:18.301Z,101531.72
2018-01-14T09:00:45.918Z,101531.02
2018-01-14T09:03:13.546Z,101526.73
2018-01-14T09:05:41.169Z,101530.23
2018-01-14T09:08:08.802Z,101529.70
2018-01-14T09:10:36.398Z,101522.95
2018-01-14T09:13:04.045Z,101526.49
2018-01-14T09:15:31.646Z,101531.44
2018-01-14T09:17:59.277Z,101533.80
2018-01-14T09:20:26.885Z,101534.95
2018-01-14T09:22:54.520Z,101535.25
2018-01-14T09:25:22.119Z,101531.66
2018-01-14T09:27:49.753Z,101528.72
2018-01-14T09:30:17.343Z,101533.33
2018-01-14T09:32:45.010Z,101538.86
2018-01-14T09:35:12.571Z,101532.63
2018-01-14T09:37:40.245Z,101532.15
2018-01-14T09:40:07.898Z,101534.09
2018-01-14T09:42:35.521Z,101533.27
2018-01-14T09:45:03.109Z,101522.05
2018-01-14T09:47:30.734Z,101519.19
2018-01-14T09:49:58.338Z,101512.77
2018-01-14T09:52:25.976Z,101513.36
2018-01-14T09:54:53.594Z,101516.64
2018-01-14T09:57:21.202Z,101510.60
2018-01-14T09:59:48.801Z,101515.70
2018-01-14T10:02:16.422Z,101514.58
2018-01-14T10:04:44.027Z,101519.50
2018-01-14T10:07:11.658Z,101516.42
2018-01-14T10:09:39.253Z,101512.47
2018-01-14T10:12:06.879Z,101517.67
2018-01-14T10:14:34.473Z,101520.11
2018-01-14T10:17:02.114Z,101509.96
2018-01-14T10:19:29.727Z,101507.84
2018-01-14T10:21:57.354Z,101509.86
2018-01-14T10:24:24.971Z,101510.79
2018-01-14T10:26:52.602Z,101519.74
2018-01-14T10:29:20.252Z,101514.12
2018-01-14T10:31:47.898Z,101515.75
2018-01-14T10:34:15.515Z,101512.75
2018-01-14T10:36:43.160Z,101512.50
2018-01-14T10:39:10.738Z,101508.05
2018-01-14T10:41:38.387Z,101504.52
2018-01-14T10:44:05.982Z,101499.09
2018-01-14T10:46:33.673Z,101500.17
2018-01-14T10:49:01.267Z,101502.96
2018-01-14T10:51:28.946Z,101499.62
2018-01-14T10:53:56.548Z,101501.14
2018-01-14T10:56:24.218Z,101498.77
2018-01-14T10:58:53.326Z,101496.33
2018-01-14T11:01:26.394Z,101485.50
2018-01-14T11:03:53.999Z,101492.75
2018-01-14T11:06:21.646Z,101497.65
2018-01-14T11:08:49.263Z,101488.54
2018-01-14T11:11:16.911Z,101492.69
2018-01-14T11:13:44.501Z,101494.46
2018-01-14T11:16:12.178Z,101494.61
2018-01-14T11:18:39.734Z,101490.42
2018-01-14T11:21:07.405Z,101487.26
2018-01-14T11:23:34.996Z,101476.94
2018-01-14T11:26:02.650Z,101499.09
2018-01-14T11:28:39.234Z,101488.84
2018-01-14T11:31:06.844Z,101483.75
2018-01-14T11:33:34.449Z,101475.44
2018-01-14T11:36:02.082Z,101473.72
2018-01-14T11:38:29.748Z,101463.25
2018-01-14T11:40:57.379Z,101471.15
2018-01-14T11:43:24.994Z,101462.00
2018-01-14T11:45:52.669Z,101466.20
2018-01-14T11:48:20.274Z,101458.85
2018-01-14T11:50:47.911Z,101455.95
2018-01-14T11:53:15.520Z,101466.18
2018-01-14T11:55:43.142Z,101454.69
2018-01-14T11:58:10.729Z,101463.95
2018-01-14T12:00:38.353Z,101459.70
2018-01-14T12:03:05.957Z,101453.89
2018-01-14T12:05:33.610Z,101447.61
2018-01-14T12:08:01.228Z,101448.24
2018-01-14T12:10:28.933Z,101449.30
2018-01-14T12:12:56.545Z,101447.73
2018-01-14T12:15:24.169Z,101442.28
2018-01-14T12:17:51.790Z,101441.69
2018-01-14T12:20:19.438Z,101441.73
2018-01-14T12:22:47.038Z,101444.73
2018-01-14T12:25:14.705Z,101443.49
2018-01-14T12:27:42.306Z,101445.88
2018-01-14T12:30:09.920Z,101435.30
2018-01-14T12:32:49.151Z,101440.56
2018-01-14T12:35:16.803Z,101442.47
2018-01-14T12:37:44.428Z,101447.39
2018-01-14T12:40:12.045Z,101443.33
2018-01-14T12:42:39.677Z,101440.80
2018-01-14T12:45:07.294Z,101442.72
2018-01-14T12:47:35.026Z,101440.13
2018-01-14T12:50:02.641Z,101434.53
2018-01-14T12:52:30.333Z,101430.20
2018-01-14T12:54:57.946Z,101432.95
2018-01-14T12:57:25.557Z,101432.40
2018-01-14T12:59:53.338Z,101430.60
2018-01-14T13:02:20.973Z,101436.73
2018-01-14T13:04:48.619Z,101438.11
2018-01-14T13:07:16.256Z,101434.38
2018-01-14T13:09:43.913Z,101427.23
2018-01-14T13:12:11.615Z,101422.77
2018-01-14T13:14:39.258Z,101424.05
2018-01-14T13:17:06.839Z,101427.69
2018-01-14T13:19:34.474Z,101412.88
2018-01-14T13:22:02.072Z,101418.09
2018-01-14T13:24:29.694Z,101418.54
2018-01-14T13:26:57.316Z,101425.35
2018-01-14T13:29:24.937Z,101413.70
2018-01-14T13:31:52.556Z,101415.62
2018-01-14T13:34:20.211Z,101413.56
2018-01-14T13:36:47.848Z,101413.14
2018-01-14T13:39:15.498Z,101427.17
2018-01-14T13:41:43.098Z,101434.95
2018-01-14T13:44:10.731Z,101436.48
2018-01-14T13:46:38.314Z,101435.69
2018-01-14T13:49:05.979Z,101427.55
2018-01-14T13:51:33.577Z,101425.11
2018-01-14T13:54:01.202Z,101420.28
2018-01-14T13:56:28.784Z,101439.30
2018-01-14T13:58:56.482Z,101424.80
2018-01-14T14:01:24.107Z,101417.50
2018-01-14T14:03:51.726Z,101426.44
2018-01-14T14:06:19.353Z,101419.72
2018-01-14T14:08:47.014Z,101421.23
2018-01-14T14:11:14.665Z,101424.41
2018-01-14T14:13:42.369Z,101415.54
2018-01-14T14:16:09.978Z,101425.62
2018-01-14T14:18:37.675Z,101437.70
2018-01-14T14:21:05.290Z,101424.22
2018-01-14T14:23:33.092Z,101439.58
2018-01-14T14:26:00.739Z,101431.77
2018-01-14T14:28:28.381Z,101429.44
2018-01-14T14:30:56.003Z,101429.04
2018-01-14T14:33:23.621Z,101436.73
2018-01-14T14:35:51.239Z,101441.44
2018-01-14T14:38:18.872Z,101436.77
2018-01-14T14:40:46.503Z,101434.38
2018-01-14T14:43:14.142Z,101434.60
2018-01-14T14:45:41.766Z,101434.40
2018-01-14T14:48:09.397Z,101432.74
2018-01-14T14:50:37.077Z,101430.39
2018-01-14T14:53:04.669Z,101434.17
2018-01-14T14:55:32.302Z,101425.20
2018-01-14T14:57:59.914Z,101415.03
2018-01-14T15:00:27.534Z,101419.89
2018-01-14T15:02:55.131Z,101419.32
2018-01-14T15:05:22.794Z,101421.43
2018-01-14T15:07:50.417Z,101414.60
2018-01-14T15:10:18.021Z,101414.02
2018-01-14T15:12:45.654Z,101425.66
2018-01-14T15:15:13.275Z,101427.19
2018-01-14T15:17:40.898Z,101427.09
2018-01-14T15:20:08.512Z,101426.72
2018-01-14T15:22:36.145Z,101425.08
2018-01-14T15:25:03.733Z,101422.91
2018-01-14T15:27:31.386Z,101422.84
2018-01-14T15:29:58.975Z,101419.77
2018-01-14T15:32:26.601Z,101426.63
2018-01-14T15:34:54.214Z,101435.08
2018-01-14T15:37:21.844Z,101432.84
2018-01-14T15:39:49.473Z,101428.44
2018-01-14T15:42:17.071Z,101423.56
2018-01-14T15:44:44.672Z,101426.84
2018-01-14T15:47:12.322Z,101423.98
2018-01-14T15:49:39.942Z,101415.01
2018-01-14T15:52:07.572Z,101423.77
2018-01-14T15:54:35.183Z,101424.61
2018-01-14T15:57:02.816Z,101428.06
2018-01-14T15:59:30.413Z,101433.48
2018-01-14T16:01:58.059Z,101434.31
2018-01-14T16:04:25.653Z,101439.69
2018-01-14T16:06:53.290Z,101430.02
2018-01-14T16:09:20.873Z,101433.37
2018-01-14T16:11:48.498Z,101432.36
2018-01-14T16:14:16.118Z,101423.28
2018-01-14T16:16:43.743Z,101415.11
2018-01-14T16:19:11.450Z,101413.68
2018-01-14T16:21:39.078Z,101413.57
2018-01-14T16:24:06.674Z,101419.29
2018-01-14T16:26:34.287Z,101419.50
2018-01-14T16:29:01.892Z,101431.64
2018-01-14T16:31:29.557Z,101445.70
2018-01-14T16:33:57.146Z,101442.45
2018-01-14T16:36:24.812Z,101441.61
2018-01-14T16:38:52.418Z,101436.92
2018-01-14T16:41:20.037Z,101434.59
2018-01-14T16:43:47.682Z,101441.70
2018-01-14T16:46:15.359Z,101447.53
2018-01-14T16:48:42.976Z,101446.21
2018-01-14T16:51:10.602Z,101440.80
2018-01-14T16:53:38.246Z,101441.33
2018-01-14T16:56:05.853Z,101433.97
2018-01-14T16:58:33.637Z,101434.50
2018-01-14T17:01:01.237Z,101436.73
2018-01-14T17:03:28.857Z,101435.20
2018-01-14T17:05:56.470Z,101432.16
2018-01-14T17:08:24.090Z,101427.24
2018-01-14T17:10:51.719Z,101429.68
2018-01-14T17:13:19.430Z,101434.08
2018-01-14T17:15:47.074Z,101428.45
2018-01-14T17:18:14.702Z,101431.95
2018-01-14T17:20:42.314Z,101419.08
2018-01-14T17:23:10.013Z,101417.95
2018-01-14T17:25:37.613Z,101421.62
2018-01-14T17:28:05.253Z,101424.27
2018-01-14T17:30:32.870Z,101419.28
2018-01-14T17:33:00.553Z,101421.64
2018-01-14T17:35:28.218Z,101412.65
2018-01-14T17:37:55.811Z,101411.42
2018-01-14T17:40:23.500Z,101416.34
2018-01-14T17:42:51.141Z,101414.71
2018-01-14T17:45:18.764Z,101412.15
2018-01-14T17:47:46.394Z,101412.64
2018-01-14T17:50:13.984Z,101410.41
2018-01-14T17:52:41.692Z,101418.66
2018-01-14T17:55:09.299Z,101421.62
2018-01-14T17:57:36.928Z,101416.11
2018-01-14T18:00:04.547Z,101409.80
2018-01-14T18:02:32.173Z,101414.67
2018-01-14T18:04:59.794Z,101405.39
2018-01-14T18:07:27.430Z,101402.13
2018-01-14T18:09:55.062Z,101399.87
2018-01-14T18:12:22.766Z,101400.48
2018-01-14T18:14:50.357Z,101404.88
2018-01-14T18:17:25.639Z,101396.92
2018-01-14T18:19:53.296Z,101410.14
2018-01-14T18:22:20.927Z,101410.23
2018-01-14T18:24:48.539Z,101411.45
2018-01-14T18:27:16.374Z,101417.77
2018-01-14T18:29:44.031Z,101412.58
2018-01-14T18:32:11.798Z,101412.05
2018-01-14T18:34:39.386Z,101410.53
2018-01-14T18:37:07.039Z,101415.40
2018-01-14T18:39:34.725Z,101411.62
2018-01-14T18:42:02.373Z,101405.80
2018-01-14T18:44:30.060Z,101400.95
2018-01-14T18:46:57.667Z,101399.20
2018-01-14T18:49:25.270Z,101402.95
2018-01-14T18:51:52.970Z,101412.52
2018-01-14T18:54:20.588Z,101412.72
2018-01-14T18:56:48.313Z,101403.76
2018-01-14T18:59:15.993Z,101400.89
2018-01-14T19:01:43.706Z,101406.97
2018-01-14T19:04:11.313Z,101416.44
2018-01-14T19:06:39.036Z,101419.09
2018-01-14T19:09:06.714Z,101418.06
2018-01-14T19:11:34.425Z,101415.92
2018-01-14T19:14:02.029Z,101410.84
2018-01-14T19:16:29.683Z,101409.09
2018-01-14T19:18:57.357Z,101389.52
2018-01-14T19:21:25.004Z,101390.33
2018-01-14T19:23:52.601Z,101405.41
2018-01-14T19:26:20.255Z,101398.37
2018-01-14T19:28:47.946Z,101391.42
2018-01-14T19:31:15.689Z,101387.06
2018-01-14T19:33:43.386Z,101387.55
2018-01-14T19:36:11.138Z,101384.00
2018-01-14T19:38:38.702Z,101391.15
2018-01-14T19:41:06.454Z,101392.55
2018-01-14T19:43:34.143Z,101395.69
2018-01-14T19:46:01.894Z,101397.22
2018-01-14T19:48:29.500Z,101401.50
2018-01-14T19:50:57.246Z,101403.97
2018-01-14T19:53:24.950Z,101402.61
2018-01-14T19:55:52.627Z,101399.64
2018-01-14T19:58:20.333Z,101402.16
2018-01-14T20:00:48.067Z,101398.00
2018-01-14T20:03:15.777Z,101395.35
2018-01-14T20:05:43.595Z,101399.91
2018-01-14T20:08:11.315Z,101404.00
2018-01-14T20:10:39.182Z,101410.83
2018-01-14T20:13:07.023Z,101408.56
2018-01-14T20:15:34.992Z,101404.67
2018-01-14T20:18:02.717Z,101400.72
2018-01-14T20:20:30.463Z,101403.76
2018-01-14T20:22:58.154Z,101393.91
2018-01-14T20:25:25.901Z,101391.66
2018-01-14T20:27:53.590Z,101387.69
2018-01-14T20:30:21.215Z,101385.16
2018-01-14T20:32:48.900Z,101384.23
2018-01-14T20:35:16.648Z,101384.64
2018-01-14T20:37:44.354Z,101385.02
2018-01-14T20:40:12.174Z,101391.06
2018-01-14T20:42:39.943Z,101388.11
2018-01-14T20:45:07.678Z,101386.96
2018-01-14T20:47:35.363Z,101383.09
2018-01-14T20:50:03.202Z,101370.89
2018-01-14T20:52:30.921Z,101368.53
2018-01-14T20:54:58.726Z,101369.33
2018-01-14T20:57:26.433Z,101369.53
2018-01-14T20:59:54.141Z,101363.73
2018-01-14T21:02:21.885Z,101359.20
2018-01-14T21:04:49.626Z,101356.59
2018-01-14T21:07:17.225Z,101352.27
2018-01-14T21:09:44.999Z,101352.34
2018-01-14T21:12:12.707Z,101360.05
2018-01-14T21:14:40.442Z,101361.69
2018-01-14T21:17:08.153Z,101360.16
2018-01-14T21:19:35.873Z,101362.09
2018-01-14T21:22:03.590Z,101361.17
2018-01-14T21:24:31.269Z,101369.26
2018-01-14T21:26:58.960Z,101366.33
2018-01-14T21:29:26.673Z,101365.91
2018-01-14T21:31:54.283Z,101362.58
2018-01-14T21:34:21.986Z,101359.30
2018-01-14T21:36:49.691Z,101353.98
2018-01-14T21:39:17.398Z,101352.88
2018-01-14T21:41:45.032Z,101361.82
2018-01-14T21:44:12.738Z,101360.72
2018-01-14T21:46:40.423Z,101356.22
2018-01-14T21:49:08.138Z,101355.73
2018-01-14T21:51:35.813Z,101353.89
2018-01-14T21:54:03.539Z,101352.64
2018-01-14T21:56:31.208Z,101340.64
2018-01-14T21:58:58.930Z,101345.52
2018-01-14T22:01:26.610Z,101342.27
2018-01-14T22:03:54.350Z,101341.34
2018-01-14T22:06:36.689Z,101346.53
2018-01-14T22:09:04.392Z,101347.02
2018-01-14T22:11:32.057Z,101345.31
2018-01-14T22:13:59.777Z,101345.02
2018-01-14T22:16:27.463Z,101345.43
2018-01-14T22:18:55.178Z,101337.58
2018-01-14T22:21:22.953Z,101331.59
2018-01-14T22:23:50.670Z,101334.94
2018-01-14T22:26:18.351Z,101330.95
2018-01-14T22:28:46.076Z,101334.72
2018-01-14T22:31:13.754Z,101333.17
2018-01-14T22:33:41.502Z,101324.64
2018-01-14T22:36:09.184Z,101316.42
2018-01-14T22:38:36.916Z,101310.50
2018-01-14T22:41:04.580Z,101310.58
2018-01-14T22:43:32.344Z,101309.91
2018-01-14T22:46:00.022Z,101307.34
2018-01-14T22:48:27.780Z,101307.53
2018-01-14T22:50:55.457Z,101294.73
2018-01-14T22:53:23.170Z,101299.50
2018-01-14T22:55:50.855Z,101299.00
2018-01-14T22:58:18.602Z,101290.55
2018-01-14T23:00:46.284Z,101294.03
2018-01-14T23:03:13.993Z,101289.45
2018-01-14T23:05:41.789Z,101289.05
2018-01-14T23:08:09.492Z,101281.23
2018-01-14T23:10:37.198Z,101284.61
2018-01-14T23:13:04.956Z,101282.65
2018-01-14T23:15:32.682Z,101277.48
2018-01-14T23:18:00.446Z,101277.87
2018-01-14T23:20:28.142Z,101272.27
2018-01-14T23:22:55.854Z,101281.42
2018-01-14T23:25:23.522Z,101270.05
2018-01-14T23:27:51.263Z,101270.52
2018-01-14T23:30:18.941Z,101266.85
2018-01-14T23:32:46.622Z,101264.33
2018-01-14T23:35:14.293Z,101260.16
2018-01-14T23:37:42.044Z,101259.14
2018-01-14T23:40:09.722Z,101257.93
2018-01-14T23:42:37.446Z,101249.89
2018-01-14T23:45:05.121Z,101247.57
2018-01-14T23:47:32.818Z,101251.14
2018-01-14T23:50:00.505Z,101257.57
2018-01-14T23:52:28.286Z,101251.86
2018-01-14T23:54:55.978Z,101252.39
2018-01-14T23:57:23.681Z,101249.85
2018-01-14T23:59:51.499Z,101246.09
